Citta Di Savona — IMDS — position and weather

sailwx.info

Track history (hours):
 
Tides and Currents Weather Stations Pressure Air Temp Water Temp Dewpoint Dewpoint Depression Visibility Wind Speed Wind Dir Waves Ship Positions

Citta Di Savona

Last reported at 2014-Sep-01 18:33 UTC. Time now 2014-Sep-02 02:04 UTC.
Position N 44°17' E 008°28'.

Length 31 m; draft 4.2 m.

Type: Tug. MMSI: 247402000.

Date/timePositionNaut miles runAvg speedWind from/ knotsBaromVisibWave heightAir tempDewpointWater temp
2014-Sep-01 18:33N 44°17' E 008°28'1 0.7
2014-Sep-01 17:32N 44°17' E 008°29'1 0.4
2014-Sep-01 14:30N 44°18' E 008°29'0 0.0
2014-Sep-01 11:27N 44°18' E 008°29'0 0.0
2014-Sep-01 10:03N 44°18' E 008°29'0 0.0
2014-Sep-01 07:30N 44°18' E 008°29'1 0.5
2014-Sep-01 06:32N 44°19' E 008°30'0 0.4
2014-Sep-01 05:25N 44°19' E 008°30'1 0.4
2014-Sep-01 03:16N 44°18' E 008°29'0 0.0
2014-Sep-01 02:28N 44°18' E 008°29'0 0.0
2014-Aug-31 23:16N 44°18' E 008°29'0 0.0
2014-Aug-31 22:25N 44°18' E 008°29'0 0.0
2014-Aug-31 11:20N 44°18' E 008°29'0 0.0
2014-Aug-31 07:32N 44°18' E 008°29'0 0.0
2014-Aug-31 06:23N 44°18' E 008°29'0 0.0
2014-Aug-31 04:11N 44°18' E 008°29'0 0.0
2014-Aug-30 17:27N 44°19' E 008°30'0 0.0
2014-Aug-30 04:33N 44°18' E 008°29'0 0.0
2014-Aug-30 03:33N 44°18' E 008°29'0 0.0
2014-Aug-30 02:33N 44°18' E 008°29'0 0.0
2014-Aug-30 01:33N 44°18' E 008°29'0 0.0
2014-Aug-29 18:18N 44°18' E 008°29'0 0.0
2014-Aug-29 16:27N 44°18' E 008°29'0 0.0
2014-Aug-29 15:15N 44°18' E 008°29'0 0.0
2014-Aug-29 14:30N 44°18' E 008°29'1 0.0
2014-Aug-28 18:33N 44°18' E 008°30'3 2.9
2014-Aug-28 17:29N 44°16' E 008°27'0 0.0
2014-Aug-28 16:29N 44°16' E 008°27'0 0.0
2014-Aug-28 15:32N 44°16' E 008°27'1 0.5
2014-Aug-28 13:28N 44°17' E 008°28'1 0.5
2014-Aug-28 11:24N 44°16' E 008°27'0 0.0
2014-Aug-28 10:30N 44°16' E 008°27'0 0.0
2014-Aug-28 08:18N 44°16' E 008°27'0 0.0
2014-Aug-28 07:09N 44°16' E 008°27'3 1.2
2014-Aug-28 04:22N 44°18' E 008°30'1 0.1
2014-Aug-27 19:12N 44°18' E 008°29'0 0.0
2014-Aug-27 16:10N 44°19' E 008°29'1 1.2
2014-Aug-27 15:31N 44°19' E 008°30'1 0.2
2014-Aug-27 11:03N 44°18' E 008°29'2 3.9
2014-Aug-27 10:33N 44°17' E 008°28'0 0.1
2014-Aug-27 09:29N 44°17' E 008°28'1 0.7
2014-Aug-27 08:23N 44°16' E 008°28'3 0.2
2014-Aug-26 16:16N 44°19' E 008°30'0 0.3
2014-Aug-26 15:32N 44°19' E 008°30'0 0.1
2014-Aug-26 11:32N 44°19' E 008°30'2 1.9
2014-Aug-26 10:22N 44°17' E 008°28'2 0.2
2014-Aug-26 01:25N 44°18' E 008°29'0 0.0
2014-Aug-25 10:32N 44°18' E 008°29'  
2014-Aug-23 03:26N 44°18' E 008°29'2 2.2
2014-Aug-23 02:27N 44°17' E 008°28'0 0.1
2014-Aug-23 01:25N 44°17' E 008°28'2 1.1
2014-Aug-22 23:29N 44°18' E 008°29'  
Track history (hours):
 
Tides and Currents Weather Stations Pressure Air Temp Water Temp Dewpoint Dewpoint Depression Visibility Wind Speed Wind Dir Waves Ship Positions

Citta Di Savona

Last reported at 2014-Sep-01 18:33 UTC. Time now 2014-Sep-02 02:04 UTC.
Position N 44°17' E 008°28'.

Length 31 m; draft 4.2 m.

Type: Tug. MMSI: 247402000.

Date/timePositionNaut miles runAvg speedWind from/ knotsBaromVisibWave heightAir tempDewpointWater temp
2014-Sep-01 18:33N 44°17' E 008°28'1 0.7
2014-Sep-01 17:32N 44°17' E 008°29'1 0.4
2014-Sep-01 14:30N 44°18' E 008°29'0 0.0
2014-Sep-01 11:27N 44°18' E 008°29'0 0.0
2014-Sep-01 10:03N 44°18' E 008°29'0 0.0
2014-Sep-01 07:30N 44°18' E 008°29'1 0.5
2014-Sep-01 06:32N 44°19' E 008°30'0 0.4
2014-Sep-01 05:25N 44°19' E 008°30'1 0.4
2014-Sep-01 03:16N 44°18' E 008°29'0 0.0
2014-Sep-01 02:28N 44°18' E 008°29'0 0.0
2014-Aug-31 23:16N 44°18' E 008°29'0 0.0
2014-Aug-31 22:25N 44°18' E 008°29'0 0.0
2014-Aug-31 11:20N 44°18' E 008°29'0 0.0
2014-Aug-31 07:32N 44°18' E 008°29'0 0.0
2014-Aug-31 06:23N 44°18' E 008°29'0 0.0
2014-Aug-31 04:11N 44°18' E 008°29'0 0.0
2014-Aug-30 17:27N 44°19' E 008°30'0 0.0
2014-Aug-30 04:33N 44°18' E 008°29'0 0.0
2014-Aug-30 03:33N 44°18' E 008°29'0 0.0
2014-Aug-30 02:33N 44°18' E 008°29'0 0.0
2014-Aug-30 01:33N 44°18' E 008°29'0 0.0
2014-Aug-29 18:18N 44°18' E 008°29'0 0.0
2014-Aug-29 16:27N 44°18' E 008°29'0 0.0
2014-Aug-29 15:15N 44°18' E 008°29'0 0.0
2014-Aug-29 14:30N 44°18' E 008°29'1 0.0
2014-Aug-28 18:33N 44°18' E 008°30'3 2.9
2014-Aug-28 17:29N 44°16' E 008°27'0 0.0
2014-Aug-28 16:29N 44°16' E 008°27'0 0.0
2014-Aug-28 15:32N 44°16' E 008°27'1 0.5
2014-Aug-28 13:28N 44°17' E 008°28'1 0.5
2014-Aug-28 11:24N 44°16' E 008°27'0 0.0
2014-Aug-28 10:30N 44°16' E 008°27'0 0.0
2014-Aug-28 08:18N 44°16' E 008°27'0 0.0
2014-Aug-28 07:09N 44°16' E 008°27'3 1.2
2014-Aug-28 04:22N 44°18' E 008°30'1 0.1
2014-Aug-27 19:12N 44°18' E 008°29'0 0.0
2014-Aug-27 16:10N 44°19' E 008°29'1 1.2
2014-Aug-27 15:31N 44°19' E 008°30'1 0.2
2014-Aug-27 11:03N 44°18' E 008°29'2 3.9
2014-Aug-27 10:33N 44°17' E 008°28'0 0.1
2014-Aug-27 09:29N 44°17' E 008°28'1 0.7
2014-Aug-27 08:23N 44°16' E 008°28'3 0.2
2014-Aug-26 16:16N 44°19' E 008°30'0 0.3
2014-Aug-26 15:32N 44°19' E 008°30'0 0.1
2014-Aug-26 11:32N 44°19' E 008°30'2 1.9
2014-Aug-26 10:22N 44°17' E 008°28'2 0.2
2014-Aug-26 01:25N 44°18' E 008°29'0 0.0
2014-Aug-25 10:32N 44°18' E 008°29'  
2014-Aug-23 03:26N 44°18' E 008°29'2 2.2
2014-Aug-23 02:27N 44°17' E 008°28'0 0.1
2014-Aug-23 01:25N 44°17' E 008°28'2 1.1
2014-Aug-22 23:29N 44°18' E 008°29'  

Dump ship's entire track history